Time;durP1;ratioP1;P1;durP2;ratioP2;P2;SDS_P1;SDS_P2;PMS_P1;PMS_P2;Temp;Humidity;BMP_temperature;BMP_pressure;BME280_temperature;BME280_humidity;BME280_pressure;Samples;Min_cycle;Max_cycle;Signal;HPM_P1;HPM_P2
2023/12/12 00:01:22;;;;;;;8.73;7.93;;;11.70;25.50;;;;;;5018701;28;20219;-78
2023/12/12 00:03:48;;;;;;;9.13;8.33;;;11.70;25.20;;;;;;5014734;28;20696;-78
2023/12/12 00:06:13;;;;;;;8.47;7.80;;;11.70;25.00;;;;;;5039105;28;20441;-78
2023/12/12 00:08:39;;;;;;;8.47;7.70;;;11.80;24.70;;;;;;5039740;28;20427;-79
2023/12/12 00:11:05;;;;;;;9.40;8.40;;;11.80;25.00;;;;;;5039890;28;20204;-78
2023/12/12 00:34:14;;;;;;;7.77;7.07;;;11.30;26.10;;;;;;5088428;22;20509;-84
2023/12/12 00:36:41;;;;;;;8.57;7.70;;;11.20;26.20;;;;;;5021284;28;20475;-85
2023/12/12 00:39:07;;;;;;;9.03;8.27;;;11.10;26.60;;;;;;5021289;28;20270;-83
2023/12/12 00:42:05;;;;;;;9.40;7.50;;;11.20;26.70;;;;;;5005463;28;20424;-82
2023/12/12 00:44:30;;;;;;;7.50;7.00;;;11.20;26.80;;;;;;5023454;28;20490;-83
2023/12/12 00:46:56;;;;;;;8.10;7.40;;;11.30;26.50;;;;;;5019222;28;20419;-83
2023/12/12 00:49:22;;;;;;;8.20;7.50;;;11.40;26.70;;;;;;5018539;28;20706;-84
2023/12/12 00:51:48;;;;;;;7.60;7.20;;;11.50;26.50;;;;;;5001117;28;20420;-85
2023/12/12 00:54:13;;;;;;;7.53;6.80;;;11.60;26.00;;;;;;5018516;28;20231;-83
2023/12/12 00:56:39;;;;;;;7.63;7.13;;;11.70;25.60;;;;;;5018004;28;20201;-82
2023/12/12 00:59:05;;;;;;;8.07;7.37;;;11.80;25.50;;;;;;5019323;28;20173;-82
2023/12/12 01:01:31;;;;;;;7.50;6.77;;;11.80;26.20;;;;;;5019883;28;20168;-82
2023/12/12 01:03:56;;;;;;;8.47;7.70;;;11.70;25.50;;;;;;5020734;28;20450;-83
2023/12/12 01:06:25;;;;;;;7.37;6.90;;;11.70;25.90;;;;;;5019921;28;20659;-85
2023/12/12 01:08:51;;;;;;;7.77;7.07;;;11.80;26.00;;;;;;5019493;28;20322;-82
2023/12/12 01:11:18;;;;;;;7.10;6.60;;;11.80;25.80;;;;;;5020049;28;20847;-82
2023/12/12 01:13:44;;;;;;;7.53;7.03;;;11.90;25.60;;;;;;5021305;28;20439;-82
2023/12/12 01:16:10;;;;;;;6.60;6.20;;;11.90;25.60;;;;;;5020894;28;20455;-83
2023/12/12 01:18:36;;;;;;;6.63;6.20;;;12.00;25.30;;;;;;5020401;28;20426;-82
2023/12/12 01:21:02;;;;;;;7.27;6.67;;;12.00;25.40;;;;;;5037490;28;20168;-82
2023/12/12 01:23:47;;;;;;;7.47;6.80;;;12.00;25.20;;;;;;5019657;28;20193;-83
2023/12/12 01:26:13;;;;;;;8.60;7.73;;;12.00;25.20;;;;;;5019478;28;20422;-83
2023/12/12 01:28:39;;;;;;;7.60;6.90;;;12.00;25.50;;;;;;5019632;28;20415;-83
2023/12/12 01:31:05;;;;;;;7.43;6.73;;;12.00;25.50;;;;;;5019072;28;20419;-84
2023/12/12 01:33:30;;;;;;;7.57;6.83;;;12.00;25.50;;;;;;5019100;28;20299;-84
2023/12/12 01:35:56;;;;;;;6.57;6.27;;;12.10;25.60;;;;;;5019049;28;20312;-84
2023/12/12 01:38:22;;;;;;;7.30;6.70;;;12.10;25.80;;;;;;5018788;28;20416;-84
2023/12/12 01:40:48;;;;;;;7.13;6.63;;;12.10;25.60;;;;;;5018609;28;20200;-83
2023/12/12 01:43:23;;;;;;;7.40;7.00;;;12.10;26.00;;;;;;5018183;28;20634;-82
2023/12/12 01:45:49;;;;;;;8.10;7.30;;;12.10;26.10;;;;;;5018319;28;20527;-85
2023/12/12 01:48:14;;;;;;;7.70;7.20;;;12.00;26.50;;;;;;5017991;28;20451;-82
2023/12/12 01:50:40;;;;;;;6.70;6.20;;;12.10;26.00;;;;;;5017683;28;20172;-83
2023/12/12 01:53:07;;;;;;;7.80;7.10;;;12.10;25.90;;;;;;5017388;28;20470;-83
2023/12/12 01:55:35;;;;;;;7.20;6.70;;;12.10;25.70;;;;;;5017352;28;20467;-83
2023/12/12 01:58:03;;;;;;;6.97;6.57;;;12.00;26.40;;;;;;5017674;28;20522;-83
2023/12/12 02:00:30;;;;;;;6.60;6.17;;;12.00;26.40;;;;;;5017288;28;20498;-84
2023/12/12 02:02:55;;;;;;;7.07;6.47;;;12.00;26.00;;;;;;5017514;28;20424;-83
2023/12/12 02:05:22;;;;;;;7.07;6.67;;;11.80;26.70;;;;;;5020657;28;20829;-83
2023/12/12 02:07:50;;;;;;;6.87;6.30;;;11.80;27.10;;;;;;5023524;28;20245;-85
2023/12/12 02:10:16;;;;;;;7.40;6.70;;;11.80;27.20;;;;;;5026140;28;20964;-85
2023/12/12 02:12:41;;;;;;;6.43;6.03;;;11.90;27.20;;;;;;5025801;28;20419;-84
2023/12/12 02:15:07;;;;;;;7.50;6.80;;;11.90;27.00;;;;;;5023583;28;20231;-82
2023/12/12 02:17:34;;;;;;;6.90;6.60;;;12.00;26.80;;;;;;5023263;28;20442;-83
2023/12/12 02:20:00;;;;;;;6.60;6.30;;;12.00;26.60;;;;;;5022816;28;20907;-83
2023/12/12 02:22:26;;;;;;;7.50;7.00;;;12.00;26.50;;;;;;5022945;28;20426;-83
2023/12/12 02:24:51;;;;;;;7.40;6.90;;;12.00;26.70;;;;;;5022791;28;20196;-83
2023/12/12 02:27:18;;;;;;;6.60;6.30;;;12.00;26.70;;;;;;5022386;28;20989;-83
2023/12/12 02:29:44;;;;;;;7.33;6.83;;;12.00;26.40;;;;;;5022722;28;20315;-84
2023/12/12 02:32:09;;;;;;;6.97;6.57;;;12.10;26.30;;;;;;5022770;28;20911;-83
2023/12/12 02:34:35;;;;;;;7.70;7.10;;;12.10;26.20;;;;;;5023226;28;20197;-83
2023/12/12 02:37:01;;;;;;;6.60;6.30;;;12.00;26.20;;;;;;5023522;28;20199;-83
2023/12/12 02:39:26;;;;;;;7.60;6.50;;;12.00;26.20;;;;;;5023804;28;20183;-83
2023/12/12 02:41:52;;;;;;;6.60;6.30;;;12.00;26.30;;;;;;5023617;28;20239;-84
2023/12/12 02:44:18;;;;;;;7.37;7.00;;;11.90;26.30;;;;;;5023436;28;20730;-84
2023/12/12 02:46:43;;;;;;;7.87;7.37;;;11.90;27.00;;;;;;5023189;28;20168;-83
2023/12/12 02:49:09;;;;;;;6.40;6.10;;;12.00;26.60;;;;;;5023500;28;20169;-84
2023/12/12 02:51:35;;;;;;;7.60;7.10;;;12.00;26.40;;;;;;5026421;28;20219;-84
2023/12/12 02:54:01;;;;;;;7.50;6.90;;;12.00;26.20;;;;;;5025528;28;20540;-84
2023/12/12 02:56:33;;;;;;;6.97;6.47;;;12.00;26.20;;;;;;5023245;28;20617;-83
2023/12/12 02:58:59;;;;;;;7.17;6.77;;;11.80;26.50;;;;;;5022794;28;20176;-82
2023/12/12 03:01:24;;;;;;;6.80;6.43;;;11.50;27.50;;;;;;5022807;28;20416;-85
2023/12/12 03:03:50;;;;;;;6.80;6.40;;;11.50;27.90;;;;;;5022306;28;20427;-83
2023/12/12 03:06:16;;;;;;;7.20;6.70;;;11.30;28.10;;;;;;5022992;28;20181;-83
2023/12/12 03:08:42;;;;;;;7.00;6.60;;;11.20;28.50;;;;;;5022228;28;20212;-83
2023/12/12 03:11:08;;;;;;;7.60;7.00;;;11.00;28.90;;;;;;5021934;28;20419;-83
2023/12/12 03:13:34;;;;;;;7.40;7.10;;;10.90;29.60;;;;;;5022431;28;20204;-82
2023/12/12 03:15:59;;;;;;;7.80;7.20;;;10.80;29.90;;;;;;5021503;28;20200;-83
2023/12/12 03:18:25;;;;;;;7.67;7.27;;;10.80;29.90;;;;;;5023111;28;20240;-83
2023/12/12 03:20:50;;;;;;;7.97;7.57;;;10.80;30.20;;;;;;5021965;28;20172;-83
2023/12/12 03:23:16;;;;;;;7.93;7.43;;;10.90;30.20;;;;;;5021882;28;20160;-83
2023/12/12 03:25:42;;;;;;;8.20;7.10;;;11.10;30.00;;;;;;5022430;28;20177;-83
2023/12/12 03:28:07;;;;;;;7.50;7.10;;;11.20;30.10;;;;;;5022785;28;20223;-85
2023/12/12 03:30:33;;;;;;;7.60;7.30;;;11.30;29.00;;;;;;5021774;28;20188;-83
2023/12/12 03:32:59;;;;;;;6.53;6.27;;;11.50;28.60;;;;;;5022620;28;20216;-84
2023/12/12 03:35:25;;;;;;;7.97;7.57;;;11.50;28.20;;;;;;5022386;28;20672;-82
2023/12/12 03:37:50;;;;;;;6.90;6.60;;;11.60;28.10;;;;;;5021862;28;20808;-84
2023/12/12 03:40:16;;;;;;;7.13;6.80;;;11.70;28.10;;;;;;5011388;28;20570;-83
2023/12/12 03:42:41;;;;;;;7.70;7.03;;;11.70;27.90;;;;;;5001591;28;20177;-83
2023/12/12 03:45:08;;;;;;;7.20;6.80;;;11.70;27.70;;;;;;5014692;28;20297;-84
2023/12/12 03:47:34;;;;;;;7.07;6.70;;;11.70;27.50;;;;;;5012932;28;20415;-83
2023/12/12 03:50:00;;;;;;;6.57;6.27;;;11.70;28.00;;;;;;5021007;28;20923;-83
2023/12/12 03:52:25;;;;;;;6.93;6.53;;;11.50;27.20;;;;;;5020392;28;20275;-84
2023/12/12 03:54:51;;;;;;;7.00;6.50;;;11.30;27.60;;;;;;5021165;28;20205;-83
2023/12/12 03:57:17;;;;;;;7.13;6.63;;;11.20;27.50;;;;;;5038898;28;20685;-82
2023/12/12 03:59:42;;;;;;;6.80;6.30;;;11.10;27.20;;;;;;5021930;28;20703;-82
2023/12/12 04:02:08;;;;;;;7.00;6.70;;;11.00;27.60;;;;;;5021595;28;20203;-84
2023/12/12 04:04:34;;;;;;;6.53;6.23;;;11.00;27.70;;;;;;5020886;28;20230;-84
2023/12/12 04:06:59;;;;;;;7.07;6.67;;;11.10;27.60;;;;;;5020978;28;20662;-82
2023/12/12 04:09:28;;;;;;;7.20;6.80;;;11.20;27.40;;;;;;5021227;28;20212;-83
2023/12/12 04:11:54;;;;;;;7.40;7.10;;;11.20;27.60;;;;;;5023512;28;20668;-83
2023/12/12 04:14:19;;;;;;;7.00;6.60;;;11.30;27.40;;;;;;5023223;28;20458;-84
2023/12/12 04:16:48;;;;;;;7.33;6.93;;;11.20;27.00;;;;;;5021935;28;20676;-83
2023/12/12 04:19:13;;;;;;;7.90;7.37;;;11.20;27.20;;;;;;5022204;28;20172;-84
2023/12/12 04:21:45;;;;;;;7.80;7.20;;;11.20;27.20;;;;;;5021749;28;20451;-82
2023/12/12 04:24:11;;;;;;;7.93;7.53;;;11.30;27.10;;;;;;5021645;28;20610;-83
2023/12/12 04:26:37;;;;;;;7.10;6.60;;;11.50;26.60;;;;;;5021245;28;20459;-83
2023/12/12 04:29:04;;;;;;;8.30;7.60;;;11.70;26.30;;;;;;5024473;28;20548;-84
2023/12/12 04:31:30;;;;;;;7.23;6.87;;;11.90;25.90;;;;;;5023850;28;20181;-82
2023/12/12 04:33:55;;;;;;;7.27;6.97;;;11.90;25.50;;;;;;5021900;28;20547;-83
2023/12/12 04:36:21;;;;;;;7.13;6.63;;;12.00;25.30;;;;;;5021716;28;20204;-83
2023/12/12 04:38:47;;;;;;;7.40;7.10;;;12.10;24.60;;;;;;5021731;28;20180;-84
2023/12/12 04:41:13;;;;;;;6.90;6.60;;;11.90;24.50;;;;;;5021492;28;20177;-83
2023/12/12 04:43:38;;;;;;;7.60;7.10;;;11.60;25.00;;;;;;5026065;28;20259;-82
2023/12/12 04:46:05;;;;;;;7.20;6.90;;;11.50;25.70;;;;;;5021925;28;20513;-82
2023/12/12 04:48:31;;;;;;;7.43;7.10;;;11.40;25.50;;;;;;5022071;28;20180;-83
2023/12/12 04:50:56;;;;;;;7.20;6.90;;;11.30;26.00;;;;;;5022322;28;20430;-82
2023/12/12 04:53:25;;;;;;;7.40;7.00;;;11.40;26.40;;;;;;5039737;28;20192;-83
2023/12/12 04:55:51;;;;;;;7.13;6.63;;;11.50;26.20;;;;;;5020733;28;20237;-82
2023/12/12 04:58:16;;;;;;;7.30;6.80;;;11.60;25.80;;;;;;5020368;28;20438;-82
2023/12/12 05:00:42;;;;;;;7.20;6.80;;;11.70;25.30;;;;;;5021682;28;20173;-83
2023/12/12 05:03:08;;;;;;;7.03;6.83;;;11.90;25.00;;;;;;5022172;28;20656;-82
2023/12/12 05:05:33;;;;;;;7.43;7.03;;;12.00;24.80;;;;;;5024001;28;20176;-82
2023/12/12 05:07:59;;;;;;;8.30;7.90;;;12.00;24.60;;;;;;5014011;28;20184;-82
2023/12/12 05:10:25;;;;;;;6.60;6.40;;;12.10;24.60;;;;;;5004364;28;20200;-85
2023/12/12 05:12:51;;;;;;;6.93;6.60;;;12.10;25.20;;;;;;4999398;28;20420;-82
2023/12/12 05:15:17;;;;;;;8.37;7.77;;;12.00;24.60;;;;;;5000260;28;20220;-82
2023/12/12 05:17:42;;;;;;;7.57;7.27;;;12.00;24.60;;;;;;4998900;28;20185;-81
2023/12/12 05:20:09;;;;;;;6.90;6.60;;;12.10;24.60;;;;;;5002250;28;20844;-82
2023/12/12 05:22:34;;;;;;;7.10;6.80;;;12.10;24.60;;;;;;5017914;28;20177;-82
2023/12/12 05:25:00;;;;;;;8.10;7.70;;;12.10;24.60;;;;;;5017740;28;20443;-81
2023/12/12 05:27:26;;;;;;;7.70;7.30;;;11.90;24.50;;;;;;5018246;28;20179;-82
2023/12/12 05:29:51;;;;;;;6.90;6.60;;;11.80;25.00;;;;;;5017804;28;20546;-83
2023/12/12 05:32:17;;;;;;;7.30;7.00;;;11.70;25.60;;;;;;5016655;28;20184;-82
2023/12/12 05:34:42;;;;;;;8.90;8.43;;;11.80;25.50;;;;;;5016603;28;20260;-82
2023/12/12 05:37:08;;;;;;;7.73;7.43;;;11.90;25.20;;;;;;5016841;28;20168;-82
2023/12/12 05:39:34;;;;;;;6.20;5.90;;;11.70;25.40;;;;;;5021084;28;20172;-84
2023/12/12 05:41:59;;;;;;;6.67;6.47;;;11.70;25.80;;;;;;5022867;28;20598;-82
2023/12/12 05:44:25;;;;;;;7.17;6.80;;;11.70;25.90;;;;;;5022887;28;20201;-81
2023/12/12 05:46:51;;;;;;;7.30;6.73;;;11.70;25.90;;;;;;5022705;28;20176;-82
2023/12/12 05:49:17;;;;;;;7.53;7.10;;;11.80;26.10;;;;;;5023524;28;20184;-82
2023/12/12 05:51:43;;;;;;;7.13;6.83;;;11.80;25.90;;;;;;5024285;28;20415;-83
2023/12/12 05:54:11;;;;;;;7.63;7.33;;;11.90;25.80;;;;;;5026315;28;20199;-81
2023/12/12 05:56:38;;;;;;;7.07;6.70;;;12.00;25.60;;;;;;5023703;28;20474;-83
2023/12/12 05:59:04;;;;;;;7.93;7.53;;;12.00;25.40;;;;;;5023987;28;20422;-82
2023/12/12 06:01:29;;;;;;;9.57;9.07;;;12.00;25.50;;;;;;5023617;28;20423;-82
2023/12/12 06:03:55;;;;;;;9.60;9.20;;;12.10;25.60;;;;;;5023080;28;20427;-81
2023/12/12 06:06:21;;;;;;;9.53;9.13;;;12.00;25.30;;;;;;5023233;28;20173;-82
2023/12/12 06:08:47;;;;;;;9.83;9.23;;;12.00;25.50;;;;;;5022445;28;20180;-82
2023/12/12 06:11:12;;;;;;;10.20;9.60;;;12.10;25.30;;;;;;5023128;28;20503;-83
2023/12/12 06:19:16;;;;;;;10.53;10.13;;;12.00;24.50;;;;;;5925632;23;21481;-79
2023/12/12 06:21:41;;;;;;;10.70;10.30;;;11.90;25.20;;;;;;4920020;29;20421;-78
2023/12/12 06:24:07;;;;;;;11.03;10.43;;;12.00;25.10;;;;;;4919702;29;20213;-78
2023/12/12 06:26:33;;;;;;;10.80;10.40;;;12.00;24.70;;;;;;4921226;29;20180;-79
2023/12/12 06:28:59;;;;;;;10.53;10.23;;;12.00;24.60;;;;;;4914308;29;20861;-78
2023/12/12 06:31:25;;;;;;;10.10;9.70;;;12.00;24.60;;;;;;4921624;29;20468;-77
2023/12/12 06:33:51;;;;;;;10.90;10.40;;;12.00;24.30;;;;;;4921327;29;20283;-77
2023/12/12 06:36:17;;;;;;;10.37;9.73;;;11.80;24.40;;;;;;4908711;29;20523;-77
2023/12/12 06:38:42;;;;;;;9.93;9.40;;;11.70;24.40;;;;;;4912059;29;20848;-78
2023/12/12 06:41:09;;;;;;;11.30;10.70;;;11.70;24.90;;;;;;4922537;29;20264;-79
2023/12/12 06:43:35;;;;;;;10.70;10.10;;;11.70;24.40;;;;;;4925435;29;20185;-77
2023/12/12 06:46:00;;;;;;;9.43;9.03;;;11.60;24.50;;;;;;4932855;29;20458;-76
2023/12/12 06:48:26;;;;;;;9.67;9.27;;;11.60;24.50;;;;;;4936970;29;20212;-79
2023/12/12 06:50:52;;;;;;;9.60;9.20;;;11.70;24.40;;;;;;4919350;29;20177;-79
2023/12/12 06:53:18;;;;;;;9.90;9.30;;;11.80;24.40;;;;;;4927541;29;20180;-76
2023/12/12 06:55:44;;;;;;;9.43;8.83;;;11.80;24.00;;;;;;4924151;29;20324;-79
2023/12/12 06:58:09;;;;;;;10.10;9.60;;;11.90;24.10;;;;;;4907509;29;20436;-78
2023/12/12 07:00:35;;;;;;;9.33;9.03;;;11.90;24.10;;;;;;4924207;29;20191;-80
2023/12/12 07:03:00;;;;;;;8.00;7.60;;;12.00;24.20;;;;;;4920582;29;20189;-80
2023/12/12 07:05:26;;;;;;;8.40;7.90;;;12.00;24.10;;;;;;4922049;29;20205;-80
2023/12/12 07:07:51;;;;;;;7.90;7.50;;;12.00;24.30;;;;;;4920895;29;20189;-78
2023/12/12 07:10:17;;;;;;;8.53;8.13;;;12.00;24.00;;;;;;4924264;29;20183;-79
2023/12/12 07:12:44;;;;;;;8.03;7.53;;;12.00;24.10;;;;;;4923349;29;20670;-80
2023/12/12 07:15:10;;;;;;;8.00;7.50;;;12.00;23.80;;;;;;4914445;29;20217;-78
2023/12/12 07:17:36;;;;;;;8.60;8.10;;;12.00;23.80;;;;;;4922783;29;20523;-78
2023/12/12 07:20:02;;;;;;;7.50;7.00;;;12.00;23.70;;;;;;4905276;29;20520;-79
2023/12/12 07:22:27;;;;;;;7.83;7.43;;;12.10;23.80;;;;;;4912758;29;20283;-80
2023/12/12 07:24:53;;;;;;;7.40;7.10;;;12.10;23.90;;;;;;4937914;29;20704;-79
2023/12/12 07:27:18;;;;;;;8.13;7.63;;;12.00;24.60;;;;;;4911512;29;20201;-80
2023/12/12 07:29:44;;;;;;;7.90;7.40;;;12.00;24.60;;;;;;4921936;29;20181;-78
2023/12/12 07:32:09;;;;;;;8.50;8.00;;;11.80;24.40;;;;;;4921805;29;20198;-78
2023/12/12 07:34:35;;;;;;;8.50;8.10;;;11.80;24.70;;;;;;4912570;29;20201;-80
2023/12/12 07:37:00;;;;;;;7.80;7.50;;;11.80;24.90;;;;;;4920947;29;20204;-79
2023/12/12 07:39:26;;;;;;;8.10;7.77;;;11.70;25.30;;;;;;4921778;29;20714;-77
2023/12/12 07:41:52;;;;;;;8.20;7.80;;;11.60;25.40;;;;;;4909795;29;20187;-79
2023/12/12 07:44:17;;;;;;;7.97;7.27;;;11.60;26.00;;;;;;4921189;29;20200;-79
2023/12/12 07:46:42;;;;;;;8.37;7.87;;;11.50;27.40;;;;;;4920987;29;20336;-79
2023/12/12 07:49:08;;;;;;;8.17;7.67;;;11.40;26.80;;;;;;4921391;29;20593;-77
2023/12/12 07:51:34;;;;;;;8.83;8.13;;;11.40;26.80;;;;;;4918980;29;20275;-78
2023/12/12 07:54:03;;;;;;;8.03;7.73;;;11.50;27.10;;;;;;4921140;29;20488;-80
2023/12/12 07:56:29;;;;;;;8.17;7.47;;;11.50;27.20;;;;;;4921300;29;20460;-79
2023/12/12 07:58:55;;;;;;;8.10;7.70;;;11.40;26.90;;;;;;4911454;29;20523;-76
2023/12/12 08:01:20;;;;;;;8.47;7.87;;;11.50;27.40;;;;;;4909946;29;20276;-79
2023/12/12 08:03:46;;;;;;;8.87;8.53;;;11.50;27.30;;;;;;4910470;29;20524;-78
2023/12/12 08:06:12;;;;;;;8.77;8.27;;;11.60;27.00;;;;;;4920898;29;20199;-78
2023/12/12 08:08:37;;;;;;;8.77;8.10;;;11.60;26.50;;;;;;4920135;29;20221;-79
2023/12/12 08:11:03;;;;;;;8.80;8.20;;;11.60;27.20;;;;;;4911298;29;20204;-77
2023/12/12 08:13:30;;;;;;;8.30;7.90;;;11.70;27.20;;;;;;4921161;29;20192;-77
2023/12/12 08:15:55;;;;;;;8.13;7.63;;;11.70;26.60;;;;;;4919991;29;20208;-79
2023/12/12 08:18:21;;;;;;;9.10;8.60;;;11.70;27.10;;;;;;4920313;29;20822;-79
2023/12/12 08:20:47;;;;;;;8.50;8.10;;;11.70;27.40;;;;;;4907770;29;20223;-79
2023/12/12 08:23:13;;;;;;;8.10;7.60;;;11.70;27.20;;;;;;4918973;29;20181;-79
2023/12/12 08:25:38;;;;;;;9.20;8.80;;;11.80;27.10;;;;;;4919829;29;20215;-78
2023/12/12 08:28:04;;;;;;;8.00;7.60;;;11.80;26.90;;;;;;4913247;29;20441;-78
2023/12/12 08:30:30;;;;;;;8.00;7.70;;;11.90;26.40;;;;;;4914561;29;20192;-79
2023/12/12 08:32:56;;;;;;;8.53;8.13;;;11.80;26.60;;;;;;4920246;29;20185;-78
2023/12/12 08:35:21;;;;;;;8.70;8.20;;;11.80;26.30;;;;;;4920486;29;20472;-79
2023/12/12 08:37:47;;;;;;;8.47;8.07;;;11.80;26.80;;;;;;4911031;29;20256;-80
2023/12/12 08:40:13;;;;;;;9.13;8.73;;;11.80;27.10;;;;;;4919738;29;20181;-81
2023/12/12 08:42:39;;;;;;;8.90;8.40;;;11.80;26.80;;;;;;4911684;29;20447;-80
2023/12/12 08:45:05;;;;;;;9.43;9.00;;;11.70;26.80;;;;;;4920761;29;20201;-80
2023/12/12 08:47:31;;;;;;;9.10;8.70;;;11.70;26.50;;;;;;4921005;29;20425;-80
2023/12/12 08:49:56;;;;;;;9.20;8.80;;;11.60;27.10;;;;;;4920457;29;20491;-81
2023/12/12 08:52:22;;;;;;;9.53;9.00;;;11.50;27.60;;;;;;4919637;29;20262;-80
2023/12/12 08:54:47;;;;;;;9.27;8.87;;;11.30;28.50;;;;;;4909163;29;20205;-80
2023/12/12 08:57:15;;;;;;;9.43;8.93;;;11.20;28.80;;;;;;4915832;29;20699;-80
2023/12/12 08:59:41;;;;;;;8.83;8.33;;;11.10;29.80;;;;;;4914783;29;20185;-80
2023/12/12 09:02:06;;;;;;;8.43;8.03;;;11.10;29.30;;;;;;4915492;29;20435;-78
2023/12/12 09:04:35;;;;;;;9.07;8.47;;;11.10;29.40;;;;;;4915102;29;20689;-78
2023/12/12 09:07:00;;;;;;;7.50;7.10;;;11.20;29.30;;;;;;4928409;29;20181;-80
2023/12/12 09:09:27;;;;;;;8.10;7.70;;;11.10;29.50;;;;;;4923190;29;20428;-78
2023/12/12 09:11:53;;;;;;;8.33;7.73;;;11.20;29.40;;;;;;4925231;29;20180;-79
2023/12/12 09:14:19;;;;;;;7.57;7.17;;;11.10;29.70;;;;;;4916806;29;20456;-77
2023/12/12 09:16:45;;;;;;;7.97;7.67;;;11.00;29.70;;;;;;4915965;29;20511;-78
2023/12/12 09:19:14;;;;;;;8.60;8.20;;;11.00;30.10;;;;;;4910622;29;20496;-77
2023/12/12 09:21:40;;;;;;;7.90;7.60;;;10.90;30.50;;;;;;4909604;29;20255;-81
2023/12/12 09:24:06;;;;;;;8.40;8.00;;;10.90;30.40;;;;;;4905761;29;20464;-81
2023/12/12 09:26:32;;;;;;;9.77;8.93;;;10.80;30.90;;;;;;4909193;29;20496;-80
2023/12/12 09:28:57;;;;;;;8.40;8.00;;;10.70;31.50;;;;;;4905227;29;20184;-83
2023/12/12 09:31:27;;;;;;;8.50;8.00;;;10.80;31.10;;;;;;4905942;29;20665;-81
2023/12/12 09:33:53;;;;;;;7.90;7.60;;;10.70;32.10;;;;;;4918777;29;20727;-80
2023/12/12 09:36:19;;;;;;;9.00;8.60;;;10.70;32.10;;;;;;4908053;29;20464;-80
2023/12/12 09:38:45;;;;;;;8.97;8.47;;;10.60;32.00;;;;;;4912554;29;20459;-79
2023/12/12 09:41:21;;;;;;;8.93;8.53;;;10.60;34.00;;;;;;4916658;29;20416;-79
2023/12/12 09:43:48;;;;;;;9.60;8.80;;;10.60;32.80;;;;;;4915209;29;20455;-79
2023/12/12 09:46:16;;;;;;;9.20;8.70;;;10.50;33.10;;;;;;4916635;29;20486;-79
2023/12/12 09:48:43;;;;;;;9.97;9.27;;;10.30;34.00;;;;;;4920737;29;20432;-79
2023/12/12 09:51:11;;;;;;;9.73;9.23;;;10.20;35.40;;;;;;4917994;29;20431;-79
2023/12/12 09:53:40;;;;;;;9.60;9.00;;;10.10;35.80;;;;;;4919037;29;20449;-79
2023/12/12 09:56:09;;;;;;;9.80;9.00;;;10.20;36.20;;;;;;4920092;29;20463;-79
2023/12/12 09:58:35;;;;;;;8.10;7.70;;;10.20;36.40;;;;;;4910878;29;21018;-79
2023/12/12 10:01:02;;;;;;;8.30;7.70;;;10.10;36.80;;;;;;4922152;29;20453;-79
2023/12/12 10:03:29;;;;;;;7.80;7.40;;;10.10;37.60;;;;;;4902224;29;20181;-78
2023/12/12 10:05:58;;;;;;;7.83;7.53;;;10.10;38.50;;;;;;4919015;29;20428;-79
2023/12/12 10:08:24;;;;;;;7.37;7.07;;;10.10;39.40;;;;;;4908935;29;20461;-79
2023/12/12 10:10:52;;;;;;;7.60;7.20;;;10.00;40.30;;;;;;4921655;29;20456;-80
2023/12/12 10:13:19;;;;;;;7.30;7.00;;;10.00;41.10;;;;;;4910456;29;20428;-80
2023/12/12 10:15:44;;;;;;;7.60;7.30;;;10.00;41.60;;;;;;4910465;29;21038;-79
2023/12/12 10:18:10;;;;;;;8.10;7.50;;;9.90;42.50;;;;;;4912342;29;20433;-79
2023/12/12 10:20:36;;;;;;;7.40;7.10;;;9.90;44.10;;;;;;4920333;29;20783;-79
2023/12/12 10:23:03;;;;;;;7.70;7.10;;;9.80;43.60;;;;;;4920837;29;20196;-79
2023/12/12 10:25:31;;;;;;;6.80;6.50;;;9.80;44.50;;;;;;4917580;29;20582;-79
2023/12/12 10:27:57;;;;;;;6.97;6.67;;;9.80;45.60;;;;;;4918895;29;20533;-79
2023/12/12 10:30:23;;;;;;;6.53;6.03;;;9.70;45.40;;;;;;4919162;29;20933;-78
2023/12/12 10:32:53;;;;;;;5.83;5.50;;;9.70;46.00;;;;;;4920863;29;20435;-78
2023/12/12 10:35:22;;;;;;;6.30;5.90;;;9.70;46.30;;;;;;4917567;29;20220;-78
2023/12/12 10:37:49;;;;;;;5.67;5.47;;;9.80;46.00;;;;;;4919373;29;20428;-79
2023/12/12 10:40:21;;;;;;;6.10;5.90;;;9.80;45.80;;;;;;4919661;29;20433;-78
2023/12/12 10:42:47;;;;;;;5.80;5.60;;;9.80;45.80;;;;;;4912656;29;20433;-77
2023/12/12 10:45:14;;;;;;;6.20;5.90;;;9.90;46.00;;;;;;4918003;29;20491;-78
2023/12/12 10:47:45;;;;;;;6.37;6.07;;;9.80;46.30;;;;;;4902766;29;20535;-78
2023/12/12 10:50:14;;;;;;;7.47;6.97;;;9.90;46.80;;;;;;4893039;29;20512;-77
2023/12/12 10:52:41;;;;;;;5.80;5.50;;;9.90;46.80;;;;;;4921662;29;20433;-78
2023/12/12 10:55:09;;;;;;;6.33;5.90;;;10.00;46.30;;;;;;4923278;29;20488;-77
2023/12/12 10:57:37;;;;;;;5.67;5.17;;;9.90;48.70;;;;;;4912246;29;20465;-77
2023/12/12 11:00:11;;;;;;;4.70;4.40;;;9.90;52.30;;;;;;4923521;29;20511;-78
2023/12/12 11:02:40;;;;;;;4.27;4.07;;;10.10;53.30;;;;;;4914975;29;20492;-78
2023/12/12 11:05:15;;;;;;;4.03;3.73;;;10.10;54.10;;;;;;4920732;29;20444;-79
2023/12/12 11:07:42;;;;;;;4.77;4.53;;;10.20;54.50;;;;;;4917460;29;20448;-79
2023/12/12 11:10:13;;;;;;;4.50;4.30;;;10.20;54.40;;;;;;4920660;29;21013;-78
2023/12/12 11:12:48;;;;;;;4.50;4.20;;;10.20;55.10;;;;;;4911567;29;20448;-79
2023/12/12 11:15:16;;;;;;;4.63;4.40;;;10.20;55.70;;;;;;4923777;29;20467;-77
2023/12/12 11:17:42;;;;;;;5.03;4.70;;;10.20;55.70;;;;;;4933595;29;20424;-78
2023/12/12 11:20:15;;;;;;;4.93;4.53;;;10.20;55.90;;;;;;4918883;29;20437;-79
2023/12/12 11:22:48;;;;;;;4.60;4.40;;;10.30;56.20;;;;;;4920536;29;20661;-79
2023/12/12 11:25:21;;;;;;;4.60;4.40;;;10.30;56.20;;;;;;4920554;29;20453;-80
2023/12/12 11:27:48;;;;;;;4.80;4.50;;;10.40;56.50;;;;;;4920382;29;20437;-79
2023/12/12 11:30:15;;;;;;;4.60;4.30;;;10.40;56.50;;;;;;4922984;29;20436;-78
2023/12/12 11:32:42;;;;;;;5.00;4.70;;;10.40;57.20;;;;;;4924098;29;20433;-78
2023/12/12 11:35:31;;;;;;;4.03;3.83;;;10.50;56.70;;;;;;4913239;29;20453;-78
2023/12/12 11:38:04;;;;;;;4.90;4.60;;;10.50;56.20;;;;;;4911871;29;20425;-79
2023/12/12 11:40:32;;;;;;;4.43;4.23;;;10.60;56.70;;;;;;4920288;29;20945;-77
2023/12/12 11:43:25;;;;;;;4.93;4.70;;;10.60;55.90;;;;;;4916722;29;20539;-78
2023/12/12 11:45:52;;;;;;;4.60;4.30;;;10.70;55.40;;;;;;4908177;29;20460;-79
2023/12/12 11:48:18;;;;;;;4.50;4.30;;;10.70;54.60;;;;;;4928780;29;20530;-79
2023/12/12 11:50:45;;;;;;;10.30;9.60;;;10.70;54.50;;;;;;4925604;29;20434;-78
2023/12/12 11:53:10;;;;;;;4.83;4.63;;;10.70;54.60;;;;;;4916926;29;20503;-80
2023/12/12 11:55:42;;;;;;;4.97;4.57;;;10.70;54.50;;;;;;4930095;29;20527;-79
2023/12/12 11:58:08;;;;;;;4.73;4.53;;;10.80;54.40;;;;;;4920870;29;20181;-79
2023/12/12 12:00:40;;;;;;;5.23;5.00;;;10.80;54.50;;;;;;4919892;29;20440;-78
2023/12/12 12:03:08;;;;;;;4.47;4.27;;;10.80;54.50;;;;;;4931291;29;20180;-79
2023/12/12 12:05:33;;;;;;;5.10;4.70;;;10.90;55.00;;;;;;4904816;29;20444;-79
2023/12/12 12:08:01;;;;;;;4.53;4.33;;;10.90;54.40;;;;;;4922120;29;21066;-79
2023/12/12 12:10:26;;;;;;;5.37;5.10;;;10.90;54.00;;;;;;4921578;29;20213;-79
2023/12/12 12:12:55;;;;;;;5.60;5.30;;;10.90;52.80;;;;;;4921272;29;20425;-78
2023/12/12 12:15:26;;;;;;;4.90;4.70;;;10.90;53.30;;;;;;4963468;23;20224;-76
2023/12/12 12:18:01;;;;;;;5.20;5.00;;;11.00;54.00;;;;;;4916277;29;20417;-75
2023/12/12 12:20:45;;;;;;;5.73;5.33;;;11.00;53.80;;;;;;4907147;29;20442;-78
2023/12/12 12:23:13;;;;;;;5.10;4.90;;;11.00;53.60;;;;;;4923840;29;20436;-76
2023/12/12 12:25:38;;;;;;;5.40;5.20;;;11.00;53.50;;;;;;4920216;29;20813;-77
2023/12/12 12:28:04;;;;;;;5.13;4.93;;;11.10;52.80;;;;;;4912272;29;20429;-78
2023/12/12 12:34:41;;;;;;;;;;;;;;;;;;;;;
2023/12/12 12:44:11;;;;;;;5.77;5.37;;;10.90;55.40;;;;;;4860781;29;20882;-77
2023/12/12 12:46:36;;;;;;;5.60;5.20;;;11.00;55.30;;;;;;4872597;29;20513;-77
2023/12/12 12:49:03;;;;;;;5.20;4.90;;;11.00;54.80;;;;;;4878947;29;21008;-77
2023/12/12 12:51:29;;;;;;;5.87;5.57;;;11.20;54.80;;;;;;4912366;29;20511;-77
2023/12/12 12:53:55;;;;;;;6.53;6.23;;;11.30;54.10;;;;;;4906722;29;20418;-78
2023/12/12 12:56:21;;;;;;;5.73;5.30;;;11.30;53.70;;;;;;4914600;29;20711;-77
2023/12/12 12:58:47;;;;;;;6.37;6.00;;;11.40;53.90;;;;;;4897143;29;20205;-77
2023/12/12 13:01:13;;;;;;;5.83;5.50;;;11.60;53.10;;;;;;4904595;29;20445;-77
2023/12/12 13:03:39;;;;;;;6.67;6.30;;;11.70;52.50;;;;;;4906737;29;20184;-77
2023/12/12 13:06:05;;;;;;;6.47;6.17;;;11.90;51.10;;;;;;4916585;29;20951;-78
2023/12/12 13:08:30;;;;;;;6.37;6.07;;;12.00;49.70;;;;;;4910918;29;20660;-78
2023/12/12 13:10:56;;;;;;;6.70;6.20;;;12.00;49.30;;;;;;4897988;29;20430;-78
2023/12/12 13:13:21;;;;;;;6.00;5.70;;;12.00;48.90;;;;;;4898459;29;20192;-77
2023/12/12 13:15:47;;;;;;;6.70;6.37;;;12.10;48.50;;;;;;4930946;29;20216;-77
2023/12/12 13:18:12;;;;;;;6.23;6.03;;;12.10;48.40;;;;;;4936718;29;20243;-78
2023/12/12 13:20:38;;;;;;;6.30;6.10;;;12.10;48.30;;;;;;4911278;29;20400;-77
2023/12/12 13:23:03;;;;;;;6.47;6.27;;;12.20;47.90;;;;;;4913267;29;20187;-78